Terminal Aerodrome Forecast
Issued by NWS

Home | Current Version | Previous Version | Text Only | Print | Product List | Glossary On
Versions: 1 2 3 4 5 6 7 8 9 10 11 12 13 14 15 16
000
FTUS43 KSGF 051100
TAFJLN
TAF
KJLN 051123Z 0512/0612 16005KT 6SM BR FEW040 SCT250
     FM051430 18007KT P6SM VCSH SCT040 SCT250
     FM051700 19010G18KT P6SM VCTS SCT040CB SCT250
     FM060000 17007KT P6SM FEW250
     FM060600 18012KT P6SM SCT250 WS018/22035KT=

USA.gov is the U.S. government's official web portal to all federal, state and local government web resources and services.